sensor_id;sensor_type;location;lat;lon;timestamp;temperature;humidity
2729;DHT22;1372;47.956;7.830;2023-07-09T00:02:15;20.30;99.90
2729;DHT22;1372;47.956;7.830;2023-07-09T00:04:45;20.10;99.90
2729;DHT22;1372;47.956;7.830;2023-07-09T00:07:18;20.10;99.90
2729;DHT22;1372;47.956;7.830;2023-07-09T00:09:50;20.10;99.90
2729;DHT22;1372;47.956;7.830;2023-07-09T00:12:19;20.10;99.90
2729;DHT22;1372;47.956;7.830;2023-07-09T00:14:48;20.10;99.90
2729;DHT22;1372;47.956;7.830;2023-07-09T00:17:23;20.10;99.90
2729;DHT22;1372;47.956;7.830;2023-07-09T00:19:55;20.10;99.90
2729;DHT22;1372;47.956;7.830;2023-07-09T00:22:26;20.00;99.90
2729;DHT22;1372;47.956;7.830;2023-07-09T00:24:57;20.00;99.90
2729;DHT22;1372;47.956;7.830;2023-07-09T00:27:28;19.90;99.90
2729;DHT22;1372;47.956;7.830;2023-07-09T00:29:58;19.90;99.90
2729;DHT22;1372;47.956;7.830;2023-07-09T00:32:28;19.90;99.90
2729;DHT22;1372;47.956;7.830;2023-07-09T00:35:00;19.90;99.90
2729;DHT22;1372;47.956;7.830;2023-07-09T00:37:32;19.80;99.90
2729;DHT22;1372;47.956;7.830;2023-07-09T00:40:01;19.80;99.90
2729;DHT22;1372;47.956;7.830;2023-07-09T00:42:30;19.80;99.90
2729;DHT22;1372;47.956;7.830;2023-07-09T00:44:59;19.70;99.90
2729;DHT22;1372;47.956;7.830;2023-07-09T00:47:41;19.60;99.90
2729;DHT22;1372;47.956;7.830;2023-07-09T00:50:26;19.60;99.90
2729;DHT22;1372;47.956;7.830;2023-07-09T00:53:04;19.60;99.90
2729;DHT22;1372;47.956;7.830;2023-07-09T00:55:39;19.60;99.90
2729;DHT22;1372;47.956;7.830;2023-07-09T00:58:13;19.60;99.90
2729;DHT22;1372;47.956;7.830;2023-07-09T01:00:47;19.60;99.90
2729;DHT22;1372;47.956;7.830;2023-07-09T01:16:03;19.40;99.90
2729;DHT22;1372;47.956;7.830;2023-07-09T01:18:34;19.30;99.90
2729;DHT22;1372;47.956;7.830;2023-07-09T01:21:08;19.30;99.90
2729;DHT22;1372;47.956;7.830;2023-07-09T01:23:42;19.20;99.90
2729;DHT22;1372;47.956;7.830;2023-07-09T01:26:12;19.20;99.90
2729;DHT22;1372;47.956;7.830;2023-07-09T01:28:43;19.30;99.90
2729;DHT22;1372;47.956;7.830;2023-07-09T01:31:13;19.30;99.90
2729;DHT22;1372;47.956;7.830;2023-07-09T01:33:44;19.30;99.90
2729;DHT22;1372;47.956;7.830;2023-07-09T01:36:17;19.20;99.90
2729;DHT22;1372;47.956;7.830;2023-07-09T01:38:53;19.10;99.90
2729;DHT22;1372;47.956;7.830;2023-07-09T01:41:21;19.20;99.90
2729;DHT22;1372;47.956;7.830;2023-07-09T01:43:50;19.20;99.90
2729;DHT22;1372;47.956;7.830;2023-07-09T01:46:20;19.10;99.90
2729;DHT22;1372;47.956;7.830;2023-07-09T01:48:49;19.10;99.90
2729;DHT22;1372;47.956;7.830;2023-07-09T01:51:21;19.10;99.90
2729;DHT22;1372;47.956;7.830;2023-07-09T01:53:51;19.10;99.90
2729;DHT22;1372;47.956;7.830;2023-07-09T01:56:21;19.10;99.90
2729;DHT22;1372;47.956;7.830;2023-07-09T01:58:51;19.10;99.90
2729;DHT22;1372;47.956;7.830;2023-07-09T02:01:28;19.10;99.90
2729;DHT22;1372;47.956;7.830;2023-07-09T02:04:00;19.10;99.90
2729;DHT22;1372;47.956;7.830;2023-07-09T02:06:30;19.10;99.90
2729;DHT22;1372;47.956;7.830;2023-07-09T02:08:59;19.10;99.90
2729;DHT22;1372;47.956;7.830;2023-07-09T02:11:28;19.10;99.90
2729;DHT22;1372;47.956;7.830;2023-07-09T02:13:57;19.00;99.90
2729;DHT22;1372;47.956;7.830;2023-07-09T02:16:26;19.00;99.90
2729;DHT22;1372;47.956;7.830;2023-07-09T02:18:55;18.90;99.90
2729;DHT22;1372;47.956;7.830;2023-07-09T02:21:23;18.90;99.90
2729;DHT22;1372;47.956;7.830;2023-07-09T02:23:58;18.80;99.90
2729;DHT22;1372;47.956;7.830;2023-07-09T02:26:27;18.80;99.90
2729;DHT22;1372;47.956;7.830;2023-07-09T02:28:56;18.80;99.90
2729;DHT22;1372;47.956;7.830;2023-07-09T02:31:24;18.80;99.90
2729;DHT22;1372;47.956;7.830;2023-07-09T02:33:57;18.80;99.90
2729;DHT22;1372;47.956;7.830;2023-07-09T02:36:26;18.80;99.90
2729;DHT22;1372;47.956;7.830;2023-07-09T02:38:58;18.80;99.90
2729;DHT22;1372;47.956;7.830;2023-07-09T02:41:30;18.80;99.90
2729;DHT22;1372;47.956;7.830;2023-07-09T02:44:00;18.70;99.90
2729;DHT22;1372;47.956;7.830;2023-07-09T02:46:31;18.70;99.90
2729;DHT22;1372;47.956;7.830;2023-07-09T02:49:00;18.80;99.90
2729;DHT22;1372;47.956;7.830;2023-07-09T02:51:29;18.70;99.90
2729;DHT22;1372;47.956;7.830;2023-07-09T02:54:03;18.70;99.90
2729;DHT22;1372;47.956;7.830;2023-07-09T02:56:32;18.70;99.90
2729;DHT22;1372;47.956;7.830;2023-07-09T02:59:01;18.70;99.90
2729;DHT22;1372;47.956;7.830;2023-07-09T03:01:31;18.70;99.90
2729;DHT22;1372;47.956;7.830;2023-07-09T03:04:03;18.70;99.90
2729;DHT22;1372;47.956;7.830;2023-07-09T03:06:33;18.60;99.90
2729;DHT22;1372;47.956;7.830;2023-07-09T03:09:05;18.60;99.90
2729;DHT22;1372;47.956;7.830;2023-07-09T03:11:35;18.60;99.90
2729;DHT22;1372;47.956;7.830;2023-07-09T03:14:06;18.50;99.90
2729;DHT22;1372;47.956;7.830;2023-07-09T03:16:35;18.50;99.90
2729;DHT22;1372;47.956;7.830;2023-07-09T03:19:04;18.60;99.90
2729;DHT22;1372;47.956;7.830;2023-07-09T03:21:33;18.60;99.90
2729;DHT22;1372;47.956;7.830;2023-07-09T03:24:05;18.50;99.90
2729;DHT22;1372;47.956;7.830;2023-07-09T03:26:34;18.50;99.90
2729;DHT22;1372;47.956;7.830;2023-07-09T03:29:08;18.50;99.90
2729;DHT22;1372;47.956;7.830;2023-07-09T03:31:37;18.50;99.90
2729;DHT22;1372;47.956;7.830;2023-07-09T03:34:06;18.50;99.90
2729;DHT22;1372;47.956;7.830;2023-07-09T03:36:37;18.40;99.90
2729;DHT22;1372;47.956;7.830;2023-07-09T03:39:07;18.40;99.90
2729;DHT22;1372;47.956;7.830;2023-07-09T03:41:36;18.40;99.90
2729;DHT22;1372;47.956;7.830;2023-07-09T03:44:05;18.50;99.90
2729;DHT22;1372;47.956;7.830;2023-07-09T03:46:39;18.50;99.90
2729;DHT22;1372;47.956;7.830;2023-07-09T03:49:08;18.40;99.90
2729;DHT22;1372;47.956;7.830;2023-07-09T03:51:37;18.50;99.90
2729;DHT22;1372;47.956;7.830;2023-07-09T03:54:05;18.40;99.90
2729;DHT22;1372;47.956;7.830;2023-07-09T03:56:38;18.50;99.90
2729;DHT22;1372;47.956;7.830;2023-07-09T03:59:07;18.40;99.90
2729;DHT22;1372;47.956;7.830;2023-07-09T04:01:38;18.40;99.90
2729;DHT22;1372;47.956;7.830;2023-07-09T04:04:13;18.40;99.90
2729;DHT22;1372;47.956;7.830;2023-07-09T04:06:42;18.40;99.90
2729;DHT22;1372;47.956;7.830;2023-07-09T04:09:13;18.40;99.90
2729;DHT22;1372;47.956;7.830;2023-07-09T04:11:42;18.50;99.90
2729;DHT22;1372;47.956;7.830;2023-07-09T04:14:11;18.40;99.90
2729;DHT22;1372;47.956;7.830;2023-07-09T04:16:40;18.30;99.90
2729;DHT22;1372;47.956;7.830;2023-07-09T04:19:11;18.30;99.90
2729;DHT22;1372;47.956;7.830;2023-07-09T04:21:40;18.30;99.90
2729;DHT22;1372;47.956;7.830;2023-07-09T04:24:09;18.40;99.90
2729;DHT22;1372;47.956;7.830;2023-07-09T04:26:39;18.50;99.90
2729;DHT22;1372;47.956;7.830;2023-07-09T04:29:08;18.50;99.90
2729;DHT22;1372;47.956;7.830;2023-07-09T04:31:40;18.50;99.90
2729;DHT22;1372;47.956;7.830;2023-07-09T04:34:11;18.60;99.90
2729;DHT22;1372;47.956;7.830;2023-07-09T04:36:43;18.60;99.90
2729;DHT22;1372;47.956;7.830;2023-07-09T04:39:12;18.70;99.90
2729;DHT22;1372;47.956;7.830;2023-07-09T04:41:43;18.70;99.90
2729;DHT22;1372;47.956;7.830;2023-07-09T04:44:12;18.80;99.90
2729;DHT22;1372;47.956;7.830;2023-07-09T04:46:41;18.80;99.90
2729;DHT22;1372;47.956;7.830;2023-07-09T04:49:10;18.80;99.90
2729;DHT22;1372;47.956;7.830;2023-07-09T04:51:39;18.90;99.90
2729;DHT22;1372;47.956;7.830;2023-07-09T04:54:08;19.00;99.90
2729;DHT22;1372;47.956;7.830;2023-07-09T04:56:37;19.00;99.90
2729;DHT22;1372;47.956;7.830;2023-07-09T04:59:07;19.00;99.90
2729;DHT22;1372;47.956;7.830;2023-07-09T05:01:36;18.90;99.90
2729;DHT22;1372;47.956;7.830;2023-07-09T05:04:05;19.00;99.90
2729;DHT22;1372;47.956;7.830;2023-07-09T05:06:34;19.10;99.90
2729;DHT22;1372;47.956;7.830;2023-07-09T05:09:04;19.10;99.90
2729;DHT22;1372;47.956;7.830;2023-07-09T05:11:34;19.10;99.90
2729;DHT22;1372;47.956;7.830;2023-07-09T05:14:03;19.20;99.90
2729;DHT22;1372;47.956;7.830;2023-07-09T05:16:34;19.20;99.90
2729;DHT22;1372;47.956;7.830;2023-07-09T05:19:03;19.20;99.90
2729;DHT22;1372;47.956;7.830;2023-07-09T05:21:32;19.20;99.90
2729;DHT22;1372;47.956;7.830;2023-07-09T05:24:05;19.30;99.90
2729;DHT22;1372;47.956;7.830;2023-07-09T05:26:34;19.30;99.90
2729;DHT22;1372;47.956;7.830;2023-07-09T05:29:04;19.40;99.90
2729;DHT22;1372;47.956;7.830;2023-07-09T05:31:34;19.50;99.90
2729;DHT22;1372;47.956;7.830;2023-07-09T05:34:03;19.70;99.90
2729;DHT22;1372;47.956;7.830;2023-07-09T05:36:32;19.80;99.90
2729;DHT22;1372;47.956;7.830;2023-07-09T05:39:03;19.90;99.90
2729;DHT22;1372;47.956;7.830;2023-07-09T05:41:35;20.00;99.90
2729;DHT22;1372;47.956;7.830;2023-07-09T05:44:03;20.10;99.90
2729;DHT22;1372;47.956;7.830;2023-07-09T05:46:36;20.20;99.90
2729;DHT22;1372;47.956;7.830;2023-07-09T05:49:06;20.30;99.90
2729;DHT22;1372;47.956;7.830;2023-07-09T05:51:35;20.40;99.90
2729;DHT22;1372;47.956;7.830;2023-07-09T05:54:05;20.40;99.90
2729;DHT22;1372;47.956;7.830;2023-07-09T05:56:36;20.50;99.90
2729;DHT22;1372;47.956;7.830;2023-07-09T05:59:07;20.60;99.90
2729;DHT22;1372;47.956;7.830;2023-07-09T06:01:38;20.70;99.90
2729;DHT22;1372;47.956;7.830;2023-07-09T06:04:07;20.80;99.90
2729;DHT22;1372;47.956;7.830;2023-07-09T06:06:36;20.90;99.90
2729;DHT22;1372;47.956;7.830;2023-07-09T06:09:05;21.00;99.90
2729;DHT22;1372;47.956;7.830;2023-07-09T06:11:35;21.10;99.90
2729;DHT22;1372;47.956;7.830;2023-07-09T06:14:04;21.20;99.90
2729;DHT22;1372;47.956;7.830;2023-07-09T06:16:37;21.30;99.90
2729;DHT22;1372;47.956;7.830;2023-07-09T06:19:06;21.40;99.90
2729;DHT22;1372;47.956;7.830;2023-07-09T06:21:35;21.40;99.90
2729;DHT22;1372;47.956;7.830;2023-07-09T06:24:06;21.50;99.90
2729;DHT22;1372;47.956;7.830;2023-07-09T06:26:37;21.60;99.90
2729;DHT22;1372;47.956;7.830;2023-07-09T06:29:06;21.70;99.90
2729;DHT22;1372;47.956;7.830;2023-07-09T06:31:38;21.80;99.90
2729;DHT22;1372;47.956;7.830;2023-07-09T06:34:08;21.90;99.90
2729;DHT22;1372;47.956;7.830;2023-07-09T06:36:37;21.90;99.90
2729;DHT22;1372;47.956;7.830;2023-07-09T06:39:08;22.00;99.90
2729;DHT22;1372;47.956;7.830;2023-07-09T06:41:38;22.10;99.90
2729;DHT22;1372;47.956;7.830;2023-07-09T06:44:07;22.10;99.90
2729;DHT22;1372;47.956;7.830;2023-07-09T06:46:38;22.10;99.90
2729;DHT22;1372;47.956;7.830;2023-07-09T06:49:09;22.20;99.90
2729;DHT22;1372;47.956;7.830;2023-07-09T06:51:38;22.30;99.90
2729;DHT22;1372;47.956;7.830;2023-07-09T06:54:07;22.40;99.90
2729;DHT22;1372;47.956;7.830;2023-07-09T06:56:36;22.40;99.90
2729;DHT22;1372;47.956;7.830;2023-07-09T06:59:05;22.50;99.90
2729;DHT22;1372;47.956;7.830;2023-07-09T07:01:34;22.50;99.90
2729;DHT22;1372;47.956;7.830;2023-07-09T07:04:04;22.60;99.90
2729;DHT22;1372;47.956;7.830;2023-07-09T07:06:33;22.60;99.90
2729;DHT22;1372;47.956;7.830;2023-07-09T07:09:03;22.80;99.90
2729;DHT22;1372;47.956;7.830;2023-07-09T07:11:32;22.80;99.90
2729;DHT22;1372;47.956;7.830;2023-07-09T07:14:03;22.80;99.90
2729;DHT22;1372;47.956;7.830;2023-07-09T07:16:32;22.90;99.90
2729;DHT22;1372;47.956;7.830;2023-07-09T07:19:03;23.00;99.90
2729;DHT22;1372;47.956;7.830;2023-07-09T07:21:33;23.10;99.90
2729;DHT22;1372;47.956;7.830;2023-07-09T07:24:02;23.10;99.90
2729;DHT22;1372;47.956;7.830;2023-07-09T07:26:31;23.20;99.90
2729;DHT22;1372;47.956;7.830;2023-07-09T07:29:03;23.30;99.90
2729;DHT22;1372;47.956;7.830;2023-07-09T07:31:32;23.40;99.90
2729;DHT22;1372;47.956;7.830;2023-07-09T07:34:01;23.50;99.90
2729;DHT22;1372;47.956;7.830;2023-07-09T07:36:34;23.50;99.90
2729;DHT22;1372;47.956;7.830;2023-07-09T07:39:06;23.60;99.90
2729;DHT22;1372;47.956;7.830;2023-07-09T07:41:38;23.70;99.90
2729;DHT22;1372;47.956;7.830;2023-07-09T07:44:09;23.80;99.90
2729;DHT22;1372;47.956;7.830;2023-07-09T07:46:39;23.80;99.90
2729;DHT22;1372;47.956;7.830;2023-07-09T07:49:11;23.90;99.90
2729;DHT22;1372;47.956;7.830;2023-07-09T07:51:42;24.10;99.90
2729;DHT22;1372;47.956;7.830;2023-07-09T07:54:11;24.20;99.90
2729;DHT22;1372;47.956;7.830;2023-07-09T07:56:42;24.20;99.90
2729;DHT22;1372;47.956;7.830;2023-07-09T07:59:10;24.30;99.90
2729;DHT22;1372;47.956;7.830;2023-07-09T08:01:39;24.40;99.90
2729;DHT22;1372;47.956;7.830;2023-07-09T08:04:08;24.50;99.90
2729;DHT22;1372;47.956;7.830;2023-07-09T08:06:40;24.50;99.90
2729;DHT22;1372;47.956;7.830;2023-07-09T08:09:10;24.60;99.90
2729;DHT22;1372;47.956;7.830;2023-07-09T08:11:39;24.70;99.90
2729;DHT22;1372;47.956;7.830;2023-07-09T08:14:08;24.70;99.90
2729;DHT22;1372;47.956;7.830;2023-07-09T08:16:37;24.80;99.90
2729;DHT22;1372;47.956;7.830;2023-07-09T08:19:07;24.90;99.90
2729;DHT22;1372;47.956;7.830;2023-07-09T08:21:37;25.00;99.90
2729;DHT22;1372;47.956;7.830;2023-07-09T08:24:09;25.00;99.90
2729;DHT22;1372;47.956;7.830;2023-07-09T08:26:38;25.10;99.90
2729;DHT22;1372;47.956;7.830;2023-07-09T08:29:07;25.30;99.90
2729;DHT22;1372;47.956;7.830;2023-07-09T08:31:36;25.30;99.90
2729;DHT22;1372;47.956;7.830;2023-07-09T08:34:06;25.30;99.90
2729;DHT22;1372;47.956;7.830;2023-07-09T08:36:38;25.40;99.90
2729;DHT22;1372;47.956;7.830;2023-07-09T08:39:08;25.50;99.90
2729;DHT22;1372;47.956;7.830;2023-07-09T08:41:45;25.50;99.90
2729;DHT22;1372;47.956;7.830;2023-07-09T08:44:33;25.50;99.90
2729;DHT22;1372;47.956;7.830;2023-07-09T08:47:17;25.60;99.90
2729;DHT22;1372;47.956;7.830;2023-07-09T08:49:53;25.70;99.90
2729;DHT22;1372;47.956;7.830;2023-07-09T08:52:28;25.90;99.90
2729;DHT22;1372;47.956;7.830;2023-07-09T08:55:04;25.90;99.90
2729;DHT22;1372;47.956;7.830;2023-07-09T08:57:38;25.90;99.90
2729;DHT22;1372;47.956;7.830;2023-07-09T09:00:14;26.00;99.90
2729;DHT22;1372;47.956;7.830;2023-07-09T09:02:50;26.00;99.90
2729;DHT22;1372;47.956;7.830;2023-07-09T09:05:21;26.10;99.90
2729;DHT22;1372;47.956;7.830;2023-07-09T09:07:55;26.20;99.90
2729;DHT22;1372;47.956;7.830;2023-07-09T09:10:33;26.30;99.90
2729;DHT22;1372;47.956;7.830;2023-07-09T09:13:08;26.50;99.90
2729;DHT22;1372;47.956;7.830;2023-07-09T09:15:41;26.40;99.90
2729;DHT22;1372;47.956;7.830;2023-07-09T09:18:21;26.40;99.90
2729;DHT22;1372;47.956;7.830;2023-07-09T09:20:57;26.50;99.90
2729;DHT22;1372;47.956;7.830;2023-07-09T09:23:30;26.60;99.90
2729;DHT22;1372;47.956;7.830;2023-07-09T09:26:16;26.80;99.90
2729;DHT22;1372;47.956;7.830;2023-07-09T09:28:49;26.90;99.90
2729;DHT22;1372;47.956;7.830;2023-07-09T09:31:18;27.00;99.90
2729;DHT22;1372;47.956;7.830;2023-07-09T09:33:48;27.10;99.90
2729;DHT22;1372;47.956;7.830;2023-07-09T09:36:21;27.10;99.90
2729;DHT22;1372;47.956;7.830;2023-07-09T09:38:51;27.20;99.90
2729;DHT22;1372;47.956;7.830;2023-07-09T09:41:24;27.20;99.90
2729;DHT22;1372;47.956;7.830;2023-07-09T09:43:54;27.30;99.90
2729;DHT22;1372;47.956;7.830;2023-07-09T09:46:26;27.30;99.90
2729;DHT22;1372;47.956;7.830;2023-07-09T09:48:59;27.30;99.90
2729;DHT22;1372;47.956;7.830;2023-07-09T09:51:29;27.40;99.90
2729;DHT22;1372;47.956;7.830;2023-07-09T09:54:00;27.50;99.90
2729;DHT22;1372;47.956;7.830;2023-07-09T09:56:36;27.40;99.90
2729;DHT22;1372;47.956;7.830;2023-07-09T09:59:05;27.60;99.90
2729;DHT22;1372;47.956;7.830;2023-07-09T10:01:35;27.60;99.90
2729;DHT22;1372;47.956;7.830;2023-07-09T10:04:05;27.70;99.90
2729;DHT22;1372;47.956;7.830;2023-07-09T10:06:40;27.70;99.90
2729;DHT22;1372;47.956;7.830;2023-07-09T10:09:20;27.80;99.90
2729;DHT22;1372;47.956;7.830;2023-07-09T10:12:06;28.00;99.90
2729;DHT22;1372;47.956;7.830;2023-07-09T10:14:47;28.30;99.90
2729;DHT22;1372;47.956;7.830;2023-07-09T10:17:28;28.40;99.90
2729;DHT22;1372;47.956;7.830;2023-07-09T10:20:08;28.50;99.90
2729;DHT22;1372;47.956;7.830;2023-07-09T10:22:52;28.40;99.90
2729;DHT22;1372;47.956;7.830;2023-07-09T10:25:33;28.50;99.90
2729;DHT22;1372;47.956;7.830;2023-07-09T10:28:33;28.40;99.90
2729;DHT22;1372;47.956;7.830;2023-07-09T10:31:15;28.40;99.90
2729;DHT22;1372;47.956;7.830;2023-07-09T10:33:54;28.50;99.90
2729;DHT22;1372;47.956;7.830;2023-07-09T10:36:43;28.50;99.90
2729;DHT22;1372;47.956;7.830;2023-07-09T10:39:23;28.50;99.90
2729;DHT22;1372;47.956;7.830;2023-07-09T10:41:57;28.50;99.90
2729;DHT22;1372;47.956;7.830;2023-07-09T10:44:34;28.60;99.90
2729;DHT22;1372;47.956;7.830;2023-07-09T10:47:06;28.80;99.90
2729;DHT22;1372;47.956;7.830;2023-07-09T10:49:41;28.90;99.90
2729;DHT22;1372;47.956;7.830;2023-07-09T10:52:24;29.00;99.90
2729;DHT22;1372;47.956;7.830;2023-07-09T10:54:58;29.10;99.90
2729;DHT22;1372;47.956;7.830;2023-07-09T10:57:34;29.20;99.90
2729;DHT22;1372;47.956;7.830;2023-07-09T11:00:18;29.10;99.90
2729;DHT22;1372;47.956;7.830;2023-07-09T11:02:58;29.20;99.90
2729;DHT22;1372;47.956;7.830;2023-07-09T11:05:29;29.30;99.90
2729;DHT22;1372;47.956;7.830;2023-07-09T11:08:02;29.60;99.90
2729;DHT22;1372;47.956;7.830;2023-07-09T11:10:37;29.70;99.90
2729;DHT22;1372;47.956;7.830;2023-07-09T11:13:12;29.80;99.90
2729;DHT22;1372;47.956;7.830;2023-07-09T11:15:49;30.00;99.90
2729;DHT22;1372;47.956;7.830;2023-07-09T11:18:22;30.10;99.90
2729;DHT22;1372;47.956;7.830;2023-07-09T11:20:59;30.10;99.90
2729;DHT22;1372;47.956;7.830;2023-07-09T11:23:38;30.00;99.90
2729;DHT22;1372;47.956;7.830;2023-07-09T11:26:14;30.10;99.90
2729;DHT22;1372;47.956;7.830;2023-07-09T11:28:52;30.10;99.90
2729;DHT22;1372;47.956;7.830;2023-07-09T11:31:31;30.20;99.90
2729;DHT22;1372;47.956;7.830;2023-07-09T11:34:09;30.20;99.90
2729;DHT22;1372;47.956;7.830;2023-07-09T11:36:50;30.50;99.90
2729;DHT22;1372;47.956;7.830;2023-07-09T11:39:31;30.60;99.90
2729;DHT22;1372;47.956;7.830;2023-07-09T11:42:29;30.60;99.90
2729;DHT22;1372;47.956;7.830;2023-07-09T11:45:06;30.60;99.90
2729;DHT22;1372;47.956;7.830;2023-07-09T11:47:42;30.60;99.90
2729;DHT22;1372;47.956;7.830;2023-07-09T11:50:23;30.60;99.90
2729;DHT22;1372;47.956;7.830;2023-07-09T11:52:56;30.60;99.90
2729;DHT22;1372;47.956;7.830;2023-07-09T11:55:29;30.60;99.90
2729;DHT22;1372;47.956;7.830;2023-07-09T11:58:03;30.50;99.90
2729;DHT22;1372;47.956;7.830;2023-07-09T12:00:39;30.50;99.90
2729;DHT22;1372;47.956;7.830;2023-07-09T12:03:14;30.70;99.90
2729;DHT22;1372;47.956;7.830;2023-07-09T12:05:50;30.90;99.90
2729;DHT22;1372;47.956;7.830;2023-07-09T12:08:24;30.90;99.90
2729;DHT22;1372;47.956;7.830;2023-07-09T12:10:56;30.90;99.90
2729;DHT22;1372;47.956;7.830;2023-07-09T12:13:25;31.00;99.90
2729;DHT22;1372;47.956;7.830;2023-07-09T12:15:54;30.90;99.90
2729;DHT22;1372;47.956;7.830;2023-07-09T12:18:24;30.80;99.90
2729;DHT22;1372;47.956;7.830;2023-07-09T12:20:53;30.90;99.90
2729;DHT22;1372;47.956;7.830;2023-07-09T12:23:26;31.20;99.90
2729;DHT22;1372;47.956;7.830;2023-07-09T12:26:00;31.10;99.90
2729;DHT22;1372;47.956;7.830;2023-07-09T12:28:30;31.20;99.90
2729;DHT22;1372;47.956;7.830;2023-07-09T12:31:00;31.40;99.90
2729;DHT22;1372;47.956;7.830;2023-07-09T12:33:31;31.40;99.90
2729;DHT22;1372;47.956;7.830;2023-07-09T12:36:03;31.50;99.90
2729;DHT22;1372;47.956;7.830;2023-07-09T12:38:41;31.60;99.90
2729;DHT22;1372;47.956;7.830;2023-07-09T12:41:19;31.70;99.90
2729;DHT22;1372;47.956;7.830;2023-07-09T12:43:49;31.70;99.90
2729;DHT22;1372;47.956;7.830;2023-07-09T12:46:20;31.70;99.90
2729;DHT22;1372;47.956;7.830;2023-07-09T12:48:50;31.70;99.90
2729;DHT22;1372;47.956;7.830;2023-07-09T12:51:24;31.80;99.90
2729;DHT22;1372;47.956;7.830;2023-07-09T12:54:02;31.70;99.90
2729;DHT22;1372;47.956;7.830;2023-07-09T12:56:34;31.60;99.90
2729;DHT22;1372;47.956;7.830;2023-07-09T12:59:18;31.90;99.90
2729;DHT22;1372;47.956;7.830;2023-07-09T13:01:51;32.10;99.90
2729;DHT22;1372;47.956;7.830;2023-07-09T13:04:30;32.20;99.90
2729;DHT22;1372;47.956;7.830;2023-07-09T13:07:02;32.20;99.90
2729;DHT22;1372;47.956;7.830;2023-07-09T13:09:33;32.00;99.90
2729;DHT22;1372;47.956;7.830;2023-07-09T13:12:06;32.00;99.90
2729;DHT22;1372;47.956;7.830;2023-07-09T13:14:38;32.10;99.90
2729;DHT22;1372;47.956;7.830;2023-07-09T13:17:09;32.20;99.90
2729;DHT22;1372;47.956;7.830;2023-07-09T13:19:42;32.10;99.90
2729;DHT22;1372;47.956;7.830;2023-07-09T13:22:13;32.20;99.90
2729;DHT22;1372;47.956;7.830;2023-07-09T13:24:44;32.40;99.90
2729;DHT22;1372;47.956;7.830;2023-07-09T13:27:15;32.40;99.90
2729;DHT22;1372;47.956;7.830;2023-07-09T13:29:44;32.60;99.90
2729;DHT22;1372;47.956;7.830;2023-07-09T13:32:15;32.70;99.90
2729;DHT22;1372;47.956;7.830;2023-07-09T13:34:46;32.60;99.90
2729;DHT22;1372;47.956;7.830;2023-07-09T13:37:18;32.40;99.90
2729;DHT22;1372;47.956;7.830;2023-07-09T13:39:47;32.50;99.90
2729;DHT22;1372;47.956;7.830;2023-07-09T13:42:17;32.70;99.90
2729;DHT22;1372;47.956;7.830;2023-07-09T13:44:47;32.80;99.90
2729;DHT22;1372;47.956;7.830;2023-07-09T13:47:18;32.90;99.90
2729;DHT22;1372;47.956;7.830;2023-07-09T13:49:49;33.00;99.90
2729;DHT22;1372;47.956;7.830;2023-07-09T13:52:21;33.30;99.90
2729;DHT22;1372;47.956;7.830;2023-07-09T13:54:55;33.10;99.90
2729;DHT22;1372;47.956;7.830;2023-07-09T13:57:24;32.90;99.90
2729;DHT22;1372;47.956;7.830;2023-07-09T13:59:53;33.00;99.90
2729;DHT22;1372;47.956;7.830;2023-07-09T14:02:25;33.20;99.90
2729;DHT22;1372;47.956;7.830;2023-07-09T14:05:02;33.20;99.90
2729;DHT22;1372;47.956;7.830;2023-07-09T14:07:44;33.30;99.90
2729;DHT22;1372;47.956;7.830;2023-07-09T14:10:14;33.40;99.90
2729;DHT22;1372;47.956;7.830;2023-07-09T14:12:46;33.20;99.90
2729;DHT22;1372;47.956;7.830;2023-07-09T14:15:17;33.30;99.90
2729;DHT22;1372;47.956;7.830;2023-07-09T14:17:48;33.20;99.90
2729;DHT22;1372;47.956;7.830;2023-07-09T14:20:19;33.30;99.90
2729;DHT22;1372;47.956;7.830;2023-07-09T14:22:49;33.40;99.90
2729;DHT22;1372;47.956;7.830;2023-07-09T14:25:20;33.90;99.90
2729;DHT22;1372;47.956;7.830;2023-07-09T14:27:51;34.10;99.90
2729;DHT22;1372;47.956;7.830;2023-07-09T14:30:22;34.00;99.90
2729;DHT22;1372;47.956;7.830;2023-07-09T14:32:54;34.30;99.90
2729;DHT22;1372;47.956;7.830;2023-07-09T14:35:27;34.50;99.90
2729;DHT22;1372;47.956;7.830;2023-07-09T14:37:56;34.70;99.90
2729;DHT22;1372;47.956;7.830;2023-07-09T14:40:27;34.90;99.90
2729;DHT22;1372;47.956;7.830;2023-07-09T14:42:56;35.00;99.90
2729;DHT22;1372;47.956;7.830;2023-07-09T14:45:27;35.00;99.90
2729;DHT22;1372;47.956;7.830;2023-07-09T14:47:57;35.00;99.90
2729;DHT22;1372;47.956;7.830;2023-07-09T14:50:28;34.90;99.90
2729;DHT22;1372;47.956;7.830;2023-07-09T14:52:57;35.10;99.90
2729;DHT22;1372;47.956;7.830;2023-07-09T14:55:26;35.20;99.90
2729;DHT22;1372;47.956;7.830;2023-07-09T14:57:56;35.20;99.90
2729;DHT22;1372;47.956;7.830;2023-07-09T15:00:28;35.30;99.90
2729;DHT22;1372;47.956;7.830;2023-07-09T15:02:59;35.30;99.90
2729;DHT22;1372;47.956;7.830;2023-07-09T15:05:29;35.00;99.90
2729;DHT22;1372;47.956;7.830;2023-07-09T15:07:58;34.90;99.90
2729;DHT22;1372;47.956;7.830;2023-07-09T15:10:28;34.90;99.90
2729;DHT22;1372;47.956;7.830;2023-07-09T15:12:58;34.80;99.90
2729;DHT22;1372;47.956;7.830;2023-07-09T15:15:29;35.00;99.90
2729;DHT22;1372;47.956;7.830;2023-07-09T15:18:01;35.20;99.90
2729;DHT22;1372;47.956;7.830;2023-07-09T15:20:42;35.00;99.90
2729;DHT22;1372;47.956;7.830;2023-07-09T15:23:17;35.10;99.90
2729;DHT22;1372;47.956;7.830;2023-07-09T15:25:50;35.00;99.90
2729;DHT22;1372;47.956;7.830;2023-07-09T15:28:19;34.70;99.90
2729;DHT22;1372;47.956;7.830;2023-07-09T15:30:48;34.60;99.90
2729;DHT22;1372;47.956;7.830;2023-07-09T15:33:19;34.40;99.90
2729;DHT22;1372;47.956;7.830;2023-07-09T15:35:50;34.30;99.90
2729;DHT22;1372;47.956;7.830;2023-07-09T15:38:27;34.10;99.90
2729;DHT22;1372;47.956;7.830;2023-07-09T15:40:57;33.80;99.90
2729;DHT22;1372;47.956;7.830;2023-07-09T15:43:28;33.50;99.90
2729;DHT22;1372;47.956;7.830;2023-07-09T15:45:58;33.40;99.90
2729;DHT22;1372;47.956;7.830;2023-07-09T15:48:31;33.60;99.90
2729;DHT22;1372;47.956;7.830;2023-07-09T15:51:04;33.80;99.90
2729;DHT22;1372;47.956;7.830;2023-07-09T15:53:33;34.00;99.90
2729;DHT22;1372;47.956;7.830;2023-07-09T15:56:04;33.90;99.90
2729;DHT22;1372;47.956;7.830;2023-07-09T15:58:39;33.90;99.90
2729;DHT22;1372;47.956;7.830;2023-07-09T16:01:12;33.70;99.90
2729;DHT22;1372;47.956;7.830;2023-07-09T16:03:47;33.50;99.90
2729;DHT22;1372;47.956;7.830;2023-07-09T16:06:18;33.50;99.90
2729;DHT22;1372;47.956;7.830;2023-07-09T16:08:47;33.70;99.90
2729;DHT22;1372;47.956;7.830;2023-07-09T16:11:19;33.80;99.90
2729;DHT22;1372;47.956;7.830;2023-07-09T16:13:50;33.80;99.90
2729;DHT22;1372;47.956;7.830;2023-07-09T16:16:21;33.70;99.90
2729;DHT22;1372;47.956;7.830;2023-07-09T16:18:51;33.60;99.90
2729;DHT22;1372;47.956;7.830;2023-07-09T16:21:24;33.60;99.90
2729;DHT22;1372;47.956;7.830;2023-07-09T16:23:56;33.40;99.90
2729;DHT22;1372;47.956;7.830;2023-07-09T16:26:27;33.70;99.90
2729;DHT22;1372;47.956;7.830;2023-07-09T16:28:56;33.80;99.90
2729;DHT22;1372;47.956;7.830;2023-07-09T16:31:25;33.60;99.90
2729;DHT22;1372;47.956;7.830;2023-07-09T16:33:54;33.40;99.90
2729;DHT22;1372;47.956;7.830;2023-07-09T16:36:24;33.20;99.90
2729;DHT22;1372;47.956;7.830;2023-07-09T16:38:53;33.10;99.90
2729;DHT22;1372;47.956;7.830;2023-07-09T16:41:24;33.20;99.90
2729;DHT22;1372;47.956;7.830;2023-07-09T16:43:55;33.20;99.90
2729;DHT22;1372;47.956;7.830;2023-07-09T16:46:24;33.30;99.90